createdAt,value
2022-12-17T00:02:41.749Z,3.87
2022-12-17T00:05:27.115Z,3.69
2022-12-17T00:08:15.623Z,3.53
2022-12-17T00:11:00.320Z,3.78
2022-12-17T00:13:45.658Z,3.96
2022-12-17T00:16:30.905Z,3.81
2022-12-17T00:19:15.906Z,4.11
2022-12-17T00:22:00.695Z,3.69
2022-12-17T00:24:45.443Z,3.37
2022-12-17T00:27:30.558Z,3.34
2022-12-17T00:30:15.303Z,3.47
2022-12-17T00:33:00.458Z,3.22
2022-12-17T00:35:45.601Z,3.30
2022-12-17T00:38:34.655Z,3.06
2022-12-17T00:41:19.412Z,3.09
2022-12-17T00:44:04.512Z,3.16
2022-12-17T00:46:49.636Z,3.24
2022-12-17T00:49:34.563Z,3.47
2022-12-17T00:52:22.716Z,3.47
2022-12-17T00:55:07.948Z,3.53
2022-12-17T00:57:52.926Z,3.54
2022-12-17T01:00:38.184Z,3.57
2022-12-17T01:03:28.814Z,3.33
2022-12-17T01:06:14.771Z,3.03
2022-12-17T01:08:59.925Z,2.97
2022-12-17T01:11:45.124Z,2.99
2022-12-17T01:14:30.008Z,3.33
2022-12-17T01:17:14.795Z,3.28
2022-12-17T01:19:59.670Z,3.42
2022-12-17T01:22:44.526Z,3.45
2022-12-17T01:25:29.530Z,3.55
2022-12-17T01:28:14.886Z,3.67
2022-12-17T01:31:02.263Z,3.63
2022-12-17T01:33:46.994Z,3.54
2022-12-17T01:36:31.792Z,3.72
2022-12-17T01:39:16.540Z,3.48
2022-12-17T01:42:01.401Z,3.55
2022-12-17T01:45:01.829Z,3.58
2022-12-17T01:47:48.955Z,3.66
2022-12-17T01:50:35.603Z,3.64
2022-12-17T01:53:22.111Z,3.55
2022-12-17T01:56:10.092Z,3.60
2022-12-17T01:58:55.067Z,3.33
2022-12-17T02:01:40.613Z,3.45
2022-12-17T02:04:28.310Z,3.46
2022-12-17T02:07:29.002Z,3.47
2022-12-17T02:10:23.674Z,3.53
2022-12-17T02:13:11.569Z,3.43
2022-12-17T02:16:01.783Z,3.40
2022-12-17T02:19:06.788Z,3.33
2022-12-17T02:21:53.162Z,3.20
2022-12-17T02:24:38.268Z,3.20
2022-12-17T02:27:24.657Z,3.12
2022-12-17T02:30:12.508Z,3.05
2022-12-17T02:33:01.956Z,3.01
2022-12-17T02:35:49.731Z,2.91
2022-12-17T02:38:36.070Z,2.83
2022-12-17T02:41:23.432Z,3.00
2022-12-17T02:44:09.233Z,2.87
2022-12-17T02:46:55.099Z,2.96
2022-12-17T02:49:40.317Z,2.70
2022-12-17T02:52:29.478Z,1.92
2022-12-17T02:55:16.866Z,1.97
2022-12-17T02:58:01.579Z,1.39
2022-12-17T03:00:47.372Z,1.38
2022-12-17T03:03:35.614Z,1.55
2022-12-17T03:06:21.242Z,1.57
2022-12-17T03:09:06.505Z,1.48
2022-12-17T03:11:51.752Z,1.60
2022-12-17T03:14:36.909Z,1.75
2022-12-17T03:17:22.267Z,1.75
2022-12-17T03:20:07.471Z,1.55
2022-12-17T03:22:52.253Z,1.40
2022-12-17T03:25:37.372Z,1.69
2022-12-17T03:28:23.174Z,1.68
2022-12-17T03:31:08.117Z,1.30
2022-12-17T03:33:53.046Z,1.39
2022-12-17T03:36:38.449Z,1.64
2022-12-17T03:39:23.287Z,1.54
2022-12-17T03:42:08.240Z,1.52
2022-12-17T03:44:53.015Z,1.63
2022-12-17T03:47:37.781Z,1.44
2022-12-17T03:50:23.238Z,1.37
2022-12-17T03:53:08.381Z,1.45
2022-12-17T03:55:53.331Z,1.37
2022-12-17T03:58:38.217Z,1.48
2022-12-17T04:01:23.155Z,1.43
2022-12-17T04:04:08.281Z,1.47
2022-12-17T04:06:53.142Z,1.26
2022-12-17T04:09:38.242Z,0.96
2022-12-17T04:12:23.000Z,0.66
2022-12-17T04:15:07.820Z,0.93
2022-12-17T04:17:52.552Z,1.16
2022-12-17T04:20:37.404Z,1.08
2022-12-17T04:23:22.415Z,1.00
2022-12-17T04:26:07.142Z,1.02
2022-12-17T04:28:52.132Z,0.86
2022-12-17T04:31:37.097Z,1.03
2022-12-17T04:34:21.809Z,0.91
2022-12-17T04:37:06.766Z,0.15
2022-12-17T04:39:51.773Z,0.06
2022-12-17T04:42:37.087Z,-0.12
2022-12-17T04:45:35.583Z,0.12
2022-12-17T04:48:41.296Z,0.05
2022-12-17T04:51:25.925Z,-0.17
2022-12-17T04:54:11.076Z,-0.12
2022-12-17T04:56:59.527Z,-0.01
2022-12-17T04:59:44.899Z,-0.03
2022-12-17T05:02:29.800Z,0.01
2022-12-17T05:05:14.828Z,0.20
2022-12-17T05:07:59.886Z,0.30
2022-12-17T05:10:44.903Z,0.41
2022-12-17T05:13:30.088Z,0.42
2022-12-17T05:16:15.646Z,0.47
2022-12-17T05:19:00.803Z,0.55
2022-12-17T05:21:45.577Z,0.61
2022-12-17T05:24:30.202Z,0.37
2022-12-17T05:27:15.092Z,0.42
2022-12-17T05:29:59.966Z,0.27
2022-12-17T05:32:44.846Z,0.01
2022-12-17T05:35:29.806Z,-0.18
2022-12-17T05:38:20.938Z,0.09
2022-12-17T05:41:06.024Z,0.17
2022-12-17T05:43:50.929Z,0.00
2022-12-17T05:46:35.833Z,-0.54
2022-12-17T05:49:20.991Z,0.17
2022-12-17T05:52:05.789Z,-0.06
2022-12-17T05:54:51.035Z,-0.19
2022-12-17T05:57:35.816Z,-0.09
2022-12-17T06:00:20.592Z,0.15
2022-12-17T06:03:05.605Z,0.12
2022-12-17T06:05:50.660Z,0.37
2022-12-17T06:08:35.641Z,0.13
2022-12-17T06:11:20.382Z,-0.16
2022-12-17T06:14:05.708Z,-0.99
2022-12-17T06:16:50.536Z,-0.89
2022-12-17T06:19:35.469Z,-0.57
2022-12-17T06:22:20.611Z,-0.47
2022-12-17T06:25:05.615Z,-0.34
2022-12-17T06:27:50.397Z,-0.20
2022-12-17T06:30:35.480Z,-0.25
2022-12-17T06:33:27.593Z,-0.16
2022-12-17T06:36:19.901Z,-0.24
2022-12-17T06:39:06.901Z,-0.52
2022-12-17T06:41:51.614Z,-0.49
2022-12-17T06:44:37.699Z,-0.41
2022-12-17T06:47:22.946Z,-0.41
2022-12-17T06:50:07.872Z,-0.28
2022-12-17T06:52:52.722Z,-0.20
2022-12-17T06:55:37.788Z,-0.11
2022-12-17T06:58:39.326Z,0.19
2022-12-17T07:01:44.738Z,-0.01
2022-12-17T07:04:29.874Z,-0.05
2022-12-17T07:07:17.585Z,-0.10
2022-12-17T07:10:03.374Z,-0.19
2022-12-17T07:12:48.161Z,-0.18
2022-12-17T07:15:33.048Z,-0.18
2022-12-17T07:18:19.536Z,-0.22
2022-12-17T07:21:05.156Z,-0.45
2022-12-17T07:23:50.497Z,-1.17
2022-12-17T07:26:35.866Z,-0.92
2022-12-17T07:29:20.949Z,-0.93
2022-12-17T07:32:06.061Z,-1.08
2022-12-17T07:34:51.155Z,-1.18
2022-12-17T07:37:36.220Z,-1.26
2022-12-17T07:40:21.354Z,-1.03
2022-12-17T07:43:06.624Z,-1.05
2022-12-17T07:45:51.329Z,-1.14
2022-12-17T07:48:36.783Z,-1.29
2022-12-17T07:51:21.491Z,-0.76
2022-12-17T07:54:06.433Z,-0.78
2022-12-17T07:56:51.114Z,-0.70
2022-12-17T07:59:36.045Z,-0.40
2022-12-17T08:02:21.333Z,-0.11
2022-12-17T08:05:06.565Z,-0.12
2022-12-17T08:07:51.645Z,0.01
2022-12-17T08:10:37.119Z,0.18
2022-12-17T08:13:23.222Z,0.25
2022-12-17T08:16:10.666Z,0.34
2022-12-17T08:18:55.933Z,0.48
2022-12-17T08:21:41.338Z,0.65
2022-12-17T08:24:26.338Z,0.66
2022-12-17T08:27:11.316Z,0.88
2022-12-17T08:29:56.204Z,1.01
2022-12-17T08:32:42.473Z,0.86
2022-12-17T08:35:27.387Z,0.50
2022-12-17T08:38:12.310Z,0.73
2022-12-17T08:40:57.462Z,0.90
2022-12-17T08:43:42.390Z,1.28
2022-12-17T08:46:27.144Z,1.60
2022-12-17T08:49:11.989Z,1.45
2022-12-17T08:51:56.648Z,1.80
2022-12-17T08:54:41.652Z,1.98
2022-12-17T08:57:31.877Z,1.97
2022-12-17T09:00:17.605Z,2.22
2022-12-17T09:03:03.048Z,2.42
2022-12-17T09:05:48.176Z,2.57
2022-12-17T09:08:33.584Z,2.65
2022-12-17T09:11:18.799Z,2.62
2022-12-17T09:14:03.800Z,2.70
2022-12-17T09:16:50.241Z,2.83
2022-12-17T09:19:35.526Z,2.89
2022-12-17T09:22:20.731Z,3.35
2022-12-17T09:25:06.065Z,3.34
2022-12-17T09:27:51.971Z,3.44
2022-12-17T09:30:36.984Z,3.26
2022-12-17T09:33:21.853Z,3.59
2022-12-17T09:36:06.857Z,3.54
2022-12-17T09:38:51.498Z,3.63
2022-12-17T09:41:40.317Z,3.75
2022-12-17T09:44:32.111Z,3.81
2022-12-17T09:47:16.989Z,4.03
2022-12-17T09:50:01.937Z,4.15
2022-12-17T09:52:58.098Z,4.23
2022-12-17T09:55:48.386Z,4.31
2022-12-17T09:58:43.849Z,4.22
2022-12-17T10:01:35.343Z,4.10
2022-12-17T10:04:24.155Z,3.69
2022-12-17T10:07:09.377Z,4.17
2022-12-17T10:10:09.022Z,4.12
2022-12-17T10:12:53.820Z,4.06
2022-12-17T10:15:38.610Z,4.38
2022-12-17T10:18:29.478Z,4.79
2022-12-17T10:21:19.700Z,3.98
2022-12-17T10:24:04.688Z,4.06
2022-12-17T10:26:50.905Z,4.22
2022-12-17T10:32:43.345Z,4.61
2022-12-17T10:35:46.769Z,4.79
2022-12-17T10:38:42.458Z,4.57
2022-12-17T10:41:43.858Z,5.10
2022-12-17T10:44:39.447Z,4.98
2022-12-17T10:47:30.868Z,5.52
2022-12-17T10:50:20.578Z,4.98
2022-12-17T10:53:06.601Z,5.20
2022-12-17T10:55:52.603Z,4.82
2022-12-17T10:58:40.413Z,5.47
2022-12-17T11:01:28.720Z,5.64
2022-12-17T11:04:14.732Z,5.78
2022-12-17T11:07:04.353Z,4.96
2022-12-17T11:10:09.471Z,5.29
2022-12-17T11:13:00.846Z,5.86
2022-12-17T11:15:56.687Z,5.58
2022-12-17T11:19:09.360Z,5.98
2022-12-17T11:22:02.502Z,6.01
2022-12-17T11:24:59.068Z,5.85
2022-12-17T11:27:46.144Z,5.86
2022-12-17T11:30:38.560Z,5.76
2022-12-17T11:33:35.198Z,5.96
2022-12-17T11:36:35.156Z,5.76
2022-12-17T11:39:44.865Z,5.78
2022-12-17T11:42:51.376Z,6.07
2022-12-17T11:46:11.751Z,6.07
2022-12-17T11:49:19.638Z,6.15
2022-12-17T11:52:10.894Z,6.21
2022-12-17T11:55:11.136Z,6.33
2022-12-17T11:58:05.958Z,6.20
2022-12-17T12:01:14.249Z,6.31
2022-12-17T12:04:02.130Z,6.96
2022-12-17T12:06:53.188Z,6.58
2022-12-17T12:09:51.774Z,6.23
2022-12-17T12:12:54.971Z,6.06
2022-12-17T12:15:44.227Z,6.27
2022-12-17T12:18:34.140Z,6.90
2022-12-17T12:21:22.356Z,6.78
2022-12-17T12:24:10.315Z,6.97
2022-12-17T12:27:10.506Z,6.65
2022-12-17T12:29:58.386Z,6.96
2022-12-17T12:32:54.730Z,6.67
2022-12-17T12:35:41.636Z,6.30
2022-12-17T12:38:34.338Z,6.42
2022-12-17T12:41:29.563Z,6.76
2022-12-17T12:44:18.515Z,6.65
2022-12-17T12:47:11.410Z,6.93
2022-12-17T12:50:01.643Z,6.59
2022-12-17T12:52:47.059Z,6.64
2022-12-17T12:55:31.943Z,7.15
2022-12-17T12:58:17.214Z,6.42
2022-12-17T13:01:02.391Z,7.19
2022-12-17T13:03:51.726Z,7.17
2022-12-17T13:06:36.784Z,7.19
2022-12-17T13:09:23.736Z,7.04
2022-12-17T13:11:54.427Z,7.24
2022-12-17T13:14:28.370Z,7.02
2022-12-17T13:16:56.442Z,7.13
2022-12-17T13:19:31.962Z,6.84
2022-12-17T13:22:23.367Z,7.03
2022-12-17T13:24:51.479Z,7.26
2022-12-17T13:27:35.853Z,7.42
2022-12-17T13:30:31.442Z,7.16
2022-12-17T13:32:57.687Z,7.38
2022-12-17T13:35:34.785Z,7.07
2022-12-17T13:38:21.247Z,7.13
2022-12-17T13:41:06.696Z,7.08
2022-12-17T13:43:44.774Z,7.22
2022-12-17T13:46:18.612Z,7.40
2022-12-17T13:48:51.788Z,7.21
2022-12-17T13:51:19.334Z,7.00
2022-12-17T13:53:53.458Z,7.04
2022-12-17T13:56:39.029Z,7.09
2022-12-17T13:59:09.562Z,6.72
2022-12-17T14:01:44.621Z,6.62
2022-12-17T14:04:19.309Z,6.73
2022-12-17T14:06:45.983Z,6.76
2022-12-17T14:09:20.116Z,6.60
2022-12-17T14:12:05.729Z,6.61
2022-12-17T14:14:33.970Z,6.74
2022-12-17T14:17:01.432Z,6.08
2022-12-17T14:19:32.123Z,6.36
2022-12-17T14:21:59.422Z,6.33
2022-12-17T14:24:29.431Z,6.43
2022-12-17T14:26:58.536Z,6.23
2022-12-17T14:29:26.594Z,6.12
2022-12-17T14:31:54.664Z,6.08
2022-12-17T14:34:21.391Z,6.28
2022-12-17T14:36:53.355Z,6.19
2022-12-17T14:39:25.596Z,5.97
2022-12-17T14:45:00.646Z,5.72
2022-12-17T14:47:31.292Z,5.83
2022-12-17T14:50:05.199Z,5.96
2022-12-17T14:52:37.516Z,5.87
2022-12-17T14:55:23.805Z,5.90
2022-12-17T14:57:53.828Z,5.62
2022-12-17T15:00:20.542Z,5.60
2022-12-17T15:02:51.569Z,5.36
2022-12-17T15:05:18.278Z,5.41
2022-12-17T15:07:44.777Z,5.54
2022-12-17T15:10:12.704Z,5.65
2022-12-17T15:12:40.746Z,5.59
2022-12-17T15:15:07.482Z,5.33
2022-12-17T15:17:34.403Z,5.38
2022-12-17T15:20:00.904Z,5.40
2022-12-17T15:22:27.482Z,5.09
2022-12-17T15:24:53.998Z,5.20
2022-12-17T15:27:21.994Z,5.03
2022-12-17T15:29:49.874Z,5.14
2022-12-17T15:32:20.521Z,5.04
2022-12-17T15:34:47.023Z,5.10
2022-12-17T15:37:13.909Z,4.89
2022-12-17T15:39:40.685Z,4.83
2022-12-17T15:42:26.195Z,4.96
2022-12-17T15:44:52.654Z,4.55
2022-12-17T15:47:19.008Z,4.74
2022-12-17T15:49:45.537Z,4.83
2022-12-17T15:52:16.481Z,4.93
2022-12-17T15:54:44.377Z,4.92
2022-12-17T15:57:18.270Z,4.68
2022-12-17T15:59:53.326Z,4.75
2022-12-17T16:02:20.135Z,4.43
2022-12-17T16:04:46.789Z,4.71
2022-12-17T16:07:13.367Z,4.67
2022-12-17T16:09:40.576Z,4.66
2022-12-17T16:12:07.266Z,4.53
2022-12-17T16:14:33.897Z,4.66
2022-12-17T16:17:11.227Z,4.21
2022-12-17T16:19:37.807Z,4.23
2022-12-17T16:22:05.255Z,4.38
2022-12-17T16:24:32.911Z,4.14
2022-12-17T16:27:04.281Z,4.31
2022-12-17T16:29:32.211Z,4.07
2022-12-17T16:32:00.029Z,4.07
2022-12-17T16:34:26.560Z,4.33
2022-12-17T16:36:53.464Z,4.36
2022-12-17T16:39:21.169Z,4.41
2022-12-17T16:41:47.600Z,4.01
2022-12-17T16:44:16.212Z,3.79
2022-12-17T16:46:43.532Z,4.07
2022-12-17T16:49:12.868Z,4.04
2022-12-17T16:51:40.761Z,4.00
2022-12-17T16:54:18.815Z,4.20
2022-12-17T16:56:46.093Z,4.08
2022-12-17T16:59:13.626Z,4.16
2022-12-17T17:01:47.191Z,3.72
2022-12-17T17:04:14.755Z,4.03
2022-12-17T17:06:54.189Z,4.27
2022-12-17T17:09:37.652Z,4.27
2022-12-17T17:12:04.456Z,4.53
2022-12-17T17:14:32.129Z,4.35
2022-12-17T17:16:58.751Z,4.36
2022-12-17T17:19:25.262Z,4.04
2022-12-17T17:21:57.939Z,4.29
2022-12-17T17:24:29.847Z,4.16
2022-12-17T17:26:58.971Z,4.04
2022-12-17T17:29:28.865Z,3.87
2022-12-17T17:32:14.234Z,3.89
2022-12-17T17:34:44.707Z,4.11
2022-12-17T17:37:12.992Z,4.01
2022-12-17T17:39:41.903Z,3.75
2022-12-17T17:42:09.362Z,3.78
2022-12-17T17:44:36.734Z,3.68
2022-12-17T17:47:03.762Z,3.66
2022-12-17T17:49:30.972Z,4.02
2022-12-17T17:52:15.633Z,3.88
2022-12-17T17:54:44.431Z,3.69
2022-12-17T17:57:14.068Z,3.75
2022-12-17T17:59:54.260Z,3.54
2022-12-17T18:02:24.488Z,3.61
2022-12-17T18:04:53.945Z,3.57
2022-12-17T18:07:25.950Z,3.62
2022-12-17T18:09:58.540Z,3.52
2022-12-17T18:12:46.180Z,3.67
2022-12-17T18:15:18.014Z,3.45
2022-12-17T18:17:51.468Z,3.54
2022-12-17T18:20:21.549Z,3.55
2022-12-17T18:22:52.166Z,3.53
2022-12-17T18:25:23.949Z,3.22
2022-12-17T18:27:57.655Z,3.48
2022-12-17T18:30:27.001Z,3.21
2022-12-17T18:32:55.376Z,3.36
2022-12-17T18:35:23.589Z,3.44
2022-12-17T18:37:53.925Z,3.04
2022-12-17T18:40:21.670Z,3.19
2022-12-17T18:43:07.106Z,3.30
2022-12-17T18:45:39.110Z,3.35
2022-12-17T18:48:06.638Z,3.28
2022-12-17T18:50:36.003Z,3.41
2022-12-17T18:53:03.311Z,3.45
2022-12-17T18:55:33.754Z,3.35
2022-12-17T18:58:02.758Z,3.32
2022-12-17T19:00:35.764Z,3.36
2022-12-17T19:03:07.565Z,3.36
2022-12-17T19:05:47.235Z,3.37
2022-12-17T19:08:19.268Z,3.23
2022-12-17T19:10:47.653Z,3.36
2022-12-17T19:13:14.898Z,3.07
2022-12-17T19:15:41.742Z,3.02
2022-12-17T19:18:10.150Z,3.03
2022-12-17T19:20:37.189Z,3.16
2022-12-17T19:23:05.238Z,3.13
2022-12-17T19:25:33.608Z,3.06
2022-12-17T19:28:00.472Z,2.89
2022-12-17T19:30:28.648Z,2.96
2022-12-17T19:32:55.968Z,3.03
2022-12-17T19:35:22.554Z,3.07
2022-12-17T19:37:50.071Z,3.02
2022-12-17T19:40:17.981Z,2.91
2022-12-17T19:42:44.871Z,2.84
2022-12-17T19:45:12.969Z,2.88
2022-12-17T19:47:41.097Z,2.86
2022-12-17T19:50:08.537Z,2.88
2022-12-17T19:52:35.721Z,2.92
2022-12-17T19:55:03.458Z,2.89
2022-12-17T19:57:30.627Z,2.96
2022-12-17T19:59:57.710Z,2.81
2022-12-17T20:02:32.313Z,2.68
2022-12-17T20:05:01.059Z,2.67
2022-12-17T20:07:34.682Z,2.57
2022-12-17T20:10:04.348Z,2.49
2022-12-17T20:12:43.871Z,2.55
2022-12-17T20:15:10.993Z,2.53
2022-12-17T20:17:38.917Z,2.54
2022-12-17T20:20:06.817Z,2.47
2022-12-17T20:22:34.274Z,2.52
2022-12-17T20:25:05.338Z,2.47
2022-12-17T20:27:35.406Z,2.43
2022-12-17T20:30:09.236Z,2.42
2022-12-17T20:32:36.044Z,2.39
2022-12-17T20:35:03.488Z,2.35
2022-12-17T20:37:32.221Z,2.37
2022-12-17T20:39:58.625Z,2.29
2022-12-17T20:42:24.985Z,2.33
2022-12-17T20:44:53.538Z,2.45
2022-12-17T20:47:20.287Z,2.42
2022-12-17T20:49:47.020Z,2.29
2022-12-17T20:52:13.393Z,2.36
2022-12-17T20:54:39.889Z,2.40
2022-12-17T20:57:06.542Z,2.26
2022-12-17T20:59:33.038Z,2.17
2022-12-17T21:01:59.534Z,2.24
2022-12-17T21:04:26.025Z,2.26
2022-12-17T21:06:52.992Z,2.14
2022-12-17T21:09:21.189Z,2.09
2022-12-17T21:11:47.938Z,2.08
2022-12-17T21:14:16.604Z,2.17
2022-12-17T21:16:43.580Z,2.11
2022-12-17T21:19:12.581Z,2.12
2022-12-17T21:21:39.404Z,1.97
2022-12-17T21:24:06.628Z,2.02
2022-12-17T21:26:36.731Z,2.02
2022-12-17T21:29:04.727Z,2.01
2022-12-17T21:31:40.657Z,2.21
2022-12-17T21:34:09.625Z,2.14
2022-12-17T21:36:36.553Z,1.90
2022-12-17T21:39:09.356Z,2.04
2022-12-17T21:41:37.638Z,2.00
2022-12-17T21:44:06.615Z,1.99
2022-12-17T21:46:33.149Z,1.95
2022-12-17T21:49:00.739Z,1.98
2022-12-17T21:51:28.358Z,1.87
2022-12-17T21:53:56.289Z,1.89
2022-12-17T21:56:23.689Z,1.96
2022-12-17T21:58:50.829Z,1.70
2022-12-17T22:01:19.843Z,1.78
2022-12-17T22:03:50.797Z,1.87
2022-12-17T22:06:21.495Z,1.72
2022-12-17T22:08:49.530Z,1.61
2022-12-17T22:11:20.791Z,1.68
2022-12-17T22:14:10.049Z,1.90
2022-12-17T22:16:47.380Z,1.66
2022-12-17T22:19:16.438Z,1.55
2022-12-17T22:21:44.395Z,1.76
2022-12-17T22:24:15.277Z,1.72
2022-12-17T22:26:42.789Z,1.71
2022-12-17T22:29:09.506Z,1.72
2022-12-17T22:31:54.557Z,1.63
2022-12-17T22:35:07.839Z,1.51
2022-12-17T22:41:36.993Z,1.49
2022-12-17T22:41:53.417Z,1.53
2022-12-17T22:44:42.957Z,1.39
2022-12-17T22:45:46.007Z,1.53
2022-12-17T22:48:13.589Z,1.53
2022-12-17T22:50:43.582Z,1.57
2022-12-17T22:53:27.521Z,1.48
2022-12-17T22:55:56.558Z,1.59
2022-12-17T22:58:24.054Z,1.46
2022-12-17T23:00:51.910Z,1.38
2022-12-17T23:03:18.552Z,1.42
2022-12-17T23:05:45.093Z,1.37
2022-12-17T23:08:12.203Z,1.44
2022-12-17T23:10:38.622Z,1.40
2022-12-17T23:13:05.355Z,1.37
2022-12-17T23:15:38.928Z,1.56
2022-12-17T23:18:06.673Z,1.47
2022-12-17T23:20:34.495Z,1.24
2022-12-17T23:23:01.219Z,1.26
2022-12-17T23:25:29.370Z,1.21
2022-12-17T23:27:56.336Z,1.28
2022-12-17T23:30:23.165Z,1.58
2022-12-17T23:32:52.194Z,1.33
2022-12-17T23:35:18.904Z,1.42
2022-12-17T23:37:45.824Z,1.65
2022-12-17T23:40:12.901Z,1.67
2022-12-17T23:42:40.023Z,1.54
2022-12-17T23:45:07.790Z,1.66
2022-12-17T23:47:34.288Z,1.42
2022-12-17T23:50:02.417Z,1.55
2022-12-17T23:52:30.067Z,1.54
2022-12-17T23:54:57.062Z,1.32
2022-12-17T23:57:24.054Z,1.68
2022-12-17T23:59:50.653Z,1.61
